sensor_id;sensor_type;location;lat;lon;timestamp;P1;durP1;ratioP1;P2;durP2;ratioP2
16314;SDS011;8266;52.150;4.768;2023-05-19T00:02:19;8.55;;;2.42;;
16314;SDS011;8266;52.150;4.768;2023-05-19T00:04:46;3.63;;;1.73;;
16314;SDS011;8266;52.150;4.768;2023-05-19T00:07:15;3.67;;;2.22;;
16314;SDS011;8266;52.150;4.768;2023-05-19T00:09:44;4.10;;;1.90;;
16314;SDS011;8266;52.150;4.768;2023-05-19T00:12:11;6.75;;;2.30;;
16314;SDS011;8266;52.150;4.768;2023-05-19T00:14:39;4.43;;;2.10;;
16314;SDS011;8266;52.150;4.768;2023-05-19T00:17:07;3.75;;;2.10;;
16314;SDS011;8266;52.150;4.768;2023-05-19T00:19:36;6.43;;;2.70;;
16314;SDS011;8266;52.150;4.768;2023-05-19T00:22:03;3.53;;;2.00;;
16314;SDS011;8266;52.150;4.768;2023-05-19T00:24:30;6.13;;;2.10;;
16314;SDS011;8266;52.150;4.768;2023-05-19T00:26:57;3.78;;;2.22;;
16314;SDS011;8266;52.150;4.768;2023-05-19T00:29:24;6.18;;;2.30;;
16314;SDS011;8266;52.150;4.768;2023-05-19T00:31:51;4.28;;;2.55;;
16314;SDS011;8266;52.150;4.768;2023-05-19T00:34:18;4.97;;;2.10;;
16314;SDS011;8266;52.150;4.768;2023-05-19T00:36:47;4.40;;;2.03;;
16314;SDS011;8266;52.150;4.768;2023-05-19T00:39:14;4.35;;;2.20;;
16314;SDS011;8266;52.150;4.768;2023-05-19T00:41:41;3.30;;;1.98;;
16314;SDS011;8266;52.150;4.768;2023-05-19T00:44:08;4.65;;;2.10;;
16314;SDS011;8266;52.150;4.768;2023-05-19T00:46:35;4.47;;;1.88;;
16314;SDS011;8266;52.150;4.768;2023-05-19T00:49:02;4.00;;;2.10;;
16314;SDS011;8266;52.150;4.768;2023-05-19T00:51:30;4.15;;;2.47;;
16314;SDS011;8266;52.150;4.768;2023-05-19T00:53:58;3.67;;;2.10;;
16314;SDS011;8266;52.150;4.768;2023-05-19T00:56:25;3.30;;;2.15;;
16314;SDS011;8266;52.150;4.768;2023-05-19T00:58:52;4.15;;;2.58;;
16314;SDS011;8266;52.150;4.768;2023-05-19T01:01:20;6.72;;;2.70;;
16314;SDS011;8266;52.150;4.768;2023-05-19T01:03:47;3.83;;;2.40;;
16314;SDS011;8266;52.150;4.768;2023-05-19T01:06:15;4.22;;;2.17;;
16314;SDS011;8266;52.150;4.768;2023-05-19T01:08:43;4.55;;;2.28;;
16314;SDS011;8266;52.150;4.768;2023-05-19T01:11:12;3.92;;;2.00;;
16314;SDS011;8266;52.150;4.768;2023-05-19T01:13:39;5.65;;;2.55;;
16314;SDS011;8266;52.150;4.768;2023-05-19T01:16:07;4.57;;;2.50;;
16314;SDS011;8266;52.150;4.768;2023-05-19T01:18:38;4.63;;;2.38;;
16314;SDS011;8266;52.150;4.768;2023-05-19T01:24:15;3.47;;;2.20;;
16314;SDS011;8266;52.150;4.768;2023-05-19T01:27:03;5.32;;;2.25;;
16314;SDS011;8266;52.150;4.768;2023-05-19T01:29:54;3.17;;;1.80;;
16314;SDS011;8266;52.150;4.768;2023-05-19T01:32:40;4.43;;;2.20;;
16314;SDS011;8266;52.150;4.768;2023-05-19T01:35:07;3.90;;;2.70;;
16314;SDS011;8266;52.150;4.768;2023-05-19T01:37:35;4.65;;;2.30;;
16314;SDS011;8266;52.150;4.768;2023-05-19T01:40:04;5.05;;;2.50;;
16314;SDS011;8266;52.150;4.768;2023-05-19T01:42:33;6.03;;;2.75;;
16314;SDS011;8266;52.150;4.768;2023-05-19T01:45:02;6.43;;;2.28;;
16314;SDS011;8266;52.150;4.768;2023-05-19T01:47:30;4.32;;;2.15;;
16314;SDS011;8266;52.150;4.768;2023-05-19T01:49:59;4.75;;;2.10;;
16314;SDS011;8266;52.150;4.768;2023-05-19T01:52:26;3.90;;;2.17;;
16314;SDS011;8266;52.150;4.768;2023-05-19T01:54:52;3.88;;;2.25;;
16314;SDS011;8266;52.150;4.768;2023-05-19T01:57:22;5.47;;;2.28;;
16314;SDS011;8266;52.150;4.768;2023-05-19T01:59:56;5.63;;;2.13;;
16314;SDS011;8266;52.150;4.768;2023-05-19T02:02:32;3.53;;;1.90;;
16314;SDS011;8266;52.150;4.768;2023-05-19T02:05:12;4.00;;;2.72;;
16314;SDS011;8266;52.150;4.768;2023-05-19T02:07:47;4.80;;;2.40;;
16314;SDS011;8266;52.150;4.768;2023-05-19T02:10:21;4.65;;;1.90;;
16314;SDS011;8266;52.150;4.768;2023-05-19T02:12:54;7.38;;;2.40;;
16314;SDS011;8266;52.150;4.768;2023-05-19T02:15:27;4.72;;;2.20;;
16314;SDS011;8266;52.150;4.768;2023-05-19T02:18:00;3.58;;;2.35;;
16314;SDS011;8266;52.150;4.768;2023-05-19T02:20:30;4.88;;;2.42;;
16314;SDS011;8266;52.150;4.768;2023-05-19T02:22:57;3.38;;;2.00;;
16314;SDS011;8266;52.150;4.768;2023-05-19T02:25:23;7.22;;;2.45;;
16314;SDS011;8266;52.150;4.768;2023-05-19T02:27:51;4.55;;;2.20;;
16314;SDS011;8266;52.150;4.768;2023-05-19T02:30:18;6.63;;;2.78;;
16314;SDS011;8266;52.150;4.768;2023-05-19T02:32:45;5.70;;;2.15;;
16314;SDS011;8266;52.150;4.768;2023-05-19T02:35:12;3.85;;;2.05;;
16314;SDS011;8266;52.150;4.768;2023-05-19T02:37:41;3.15;;;2.20;;
16314;SDS011;8266;52.150;4.768;2023-05-19T02:40:08;4.72;;;2.42;;
16314;SDS011;8266;52.150;4.768;2023-05-19T02:42:35;4.10;;;2.40;;
16314;SDS011;8266;52.150;4.768;2023-05-19T02:45:02;3.47;;;2.25;;
16314;SDS011;8266;52.150;4.768;2023-05-19T02:47:30;5.57;;;2.45;;
16314;SDS011;8266;52.150;4.768;2023-05-19T02:49:57;3.88;;;2.40;;
16314;SDS011;8266;52.150;4.768;2023-05-19T02:52:24;3.63;;;2.08;;
16314;SDS011;8266;52.150;4.768;2023-05-19T02:54:52;7.15;;;2.72;;
16314;SDS011;8266;52.150;4.768;2023-05-19T02:57:19;5.43;;;2.30;;
16314;SDS011;8266;52.150;4.768;2023-05-19T02:59:46;5.00;;;2.25;;
16314;SDS011;8266;52.150;4.768;2023-05-19T03:02:13;4.88;;;2.30;;
16314;SDS011;8266;52.150;4.768;2023-05-19T03:04:40;8.05;;;2.83;;
16314;SDS011;8266;52.150;4.768;2023-05-19T03:07:07;5.82;;;2.55;;
16314;SDS011;8266;52.150;4.768;2023-05-19T03:09:35;5.15;;;2.45;;
16314;SDS011;8266;52.150;4.768;2023-05-19T03:12:04;5.03;;;2.70;;
16314;SDS011;8266;52.150;4.768;2023-05-19T03:14:31;4.88;;;2.78;;
16314;SDS011;8266;52.150;4.768;2023-05-19T03:16:58;6.53;;;3.10;;
16314;SDS011;8266;52.150;4.768;2023-05-19T03:19:26;4.90;;;2.70;;
16314;SDS011;8266;52.150;4.768;2023-05-19T03:21:53;4.95;;;2.65;;
16314;SDS011;8266;52.150;4.768;2023-05-19T03:24:20;4.13;;;2.30;;
16314;SDS011;8266;52.150;4.768;2023-05-19T03:26:47;10.13;;;3.22;;
16314;SDS011;8266;52.150;4.768;2023-05-19T03:29:15;5.22;;;3.08;;
16314;SDS011;8266;52.150;4.768;2023-05-19T03:31:42;8.13;;;3.10;;
16314;SDS011;8266;52.150;4.768;2023-05-19T03:34:09;5.35;;;2.50;;
16314;SDS011;8266;52.150;4.768;2023-05-19T03:36:36;4.78;;;2.50;;
16314;SDS011;8266;52.150;4.768;2023-05-19T03:39:03;5.82;;;2.72;;
16314;SDS011;8266;52.150;4.768;2023-05-19T03:41:31;5.65;;;2.88;;
16314;SDS011;8266;52.150;4.768;2023-05-19T03:43:58;5.15;;;2.88;;
16314;SDS011;8266;52.150;4.768;2023-05-19T03:46:26;5.57;;;2.50;;
16314;SDS011;8266;52.150;4.768;2023-05-19T03:48:53;9.40;;;2.83;;
16314;SDS011;8266;52.150;4.768;2023-05-19T03:51:20;8.05;;;2.83;;
16314;SDS011;8266;52.150;4.768;2023-05-19T03:53:47;4.10;;;2.80;;
16314;SDS011;8266;52.150;4.768;2023-05-19T03:56:14;5.43;;;2.60;;
16314;SDS011;8266;52.150;4.768;2023-05-19T03:58:42;5.45;;;3.08;;
16314;SDS011;8266;52.150;4.768;2023-05-19T04:01:11;5.80;;;2.78;;
16314;SDS011;8266;52.150;4.768;2023-05-19T04:03:39;4.80;;;2.70;;
16314;SDS011;8266;52.150;4.768;2023-05-19T04:06:06;4.45;;;2.63;;
16314;SDS011;8266;52.150;4.768;2023-05-19T04:08:33;6.38;;;3.05;;
16314;SDS011;8266;52.150;4.768;2023-05-19T04:11:00;5.10;;;2.78;;
16314;SDS011;8266;52.150;4.768;2023-05-19T04:13:27;4.47;;;3.33;;
16314;SDS011;8266;52.150;4.768;2023-05-19T04:15:54;5.45;;;2.83;;
16314;SDS011;8266;52.150;4.768;2023-05-19T04:18:21;4.82;;;2.92;;
16314;SDS011;8266;52.150;4.768;2023-05-19T04:20:49;5.03;;;3.08;;
16314;SDS011;8266;52.150;4.768;2023-05-19T04:23:16;6.93;;;2.88;;
16314;SDS011;8266;52.150;4.768;2023-05-19T04:25:43;5.97;;;3.40;;
16314;SDS011;8266;52.150;4.768;2023-05-19T04:28:12;3.97;;;2.47;;
16314;SDS011;8266;52.150;4.768;2023-05-19T04:30:39;5.72;;;2.92;;
16314;SDS011;8266;52.150;4.768;2023-05-19T04:33:06;5.75;;;3.30;;
16314;SDS011;8266;52.150;4.768;2023-05-19T04:35:34;6.03;;;3.25;;
16314;SDS011;8266;52.150;4.768;2023-05-19T04:38:03;6.55;;;3.55;;
16314;SDS011;8266;52.150;4.768;2023-05-19T04:40:30;6.53;;;3.28;;
16314;SDS011;8266;52.150;4.768;2023-05-19T04:42:57;4.35;;;3.10;;
16314;SDS011;8266;52.150;4.768;2023-05-19T04:45:26;6.60;;;3.90;;
16314;SDS011;8266;52.150;4.768;2023-05-19T04:47:53;6.40;;;3.55;;
16314;SDS011;8266;52.150;4.768;2023-05-19T04:50:22;4.43;;;3.63;;
16314;SDS011;8266;52.150;4.768;2023-05-19T04:52:49;5.05;;;3.15;;
16314;SDS011;8266;52.150;4.768;2023-05-19T04:55:17;6.38;;;3.35;;
16314;SDS011;8266;52.150;4.768;2023-05-19T04:57:44;6.25;;;3.17;;
16314;SDS011;8266;52.150;4.768;2023-05-19T05:00:11;5.78;;;3.30;;
16314;SDS011;8266;52.150;4.768;2023-05-19T05:02:39;4.85;;;3.40;;
16314;SDS011;8266;52.150;4.768;2023-05-19T05:05:07;5.03;;;2.85;;
16314;SDS011;8266;52.150;4.768;2023-05-19T05:07:34;5.30;;;2.80;;
16314;SDS011;8266;52.150;4.768;2023-05-19T05:10:01;6.13;;;3.08;;
16314;SDS011;8266;52.150;4.768;2023-05-19T05:12:30;7.85;;;3.50;;
16314;SDS011;8266;52.150;4.768;2023-05-19T05:14:58;4.90;;;3.05;;
16314;SDS011;8266;52.150;4.768;2023-05-19T05:17:25;5.53;;;3.13;;
16314;SDS011;8266;52.150;4.768;2023-05-19T05:19:53;5.40;;;3.20;;
16314;SDS011;8266;52.150;4.768;2023-05-19T05:22:20;6.97;;;3.95;;
16314;SDS011;8266;52.150;4.768;2023-05-19T05:24:48;6.80;;;3.88;;
16314;SDS011;8266;52.150;4.768;2023-05-19T05:27:15;6.70;;;3.42;;
16314;SDS011;8266;52.150;4.768;2023-05-19T05:29:44;5.53;;;4.03;;
16314;SDS011;8266;52.150;4.768;2023-05-19T05:32:11;7.35;;;3.33;;
16314;SDS011;8266;52.150;4.768;2023-05-19T05:34:37;6.22;;;3.45;;
16314;SDS011;8266;52.150;4.768;2023-05-19T05:37:05;6.00;;;3.47;;
16314;SDS011;8266;52.150;4.768;2023-05-19T05:39:33;6.00;;;3.28;;
16314;SDS011;8266;52.150;4.768;2023-05-19T05:42:00;5.18;;;3.25;;
16314;SDS011;8266;52.150;4.768;2023-05-19T05:44:27;6.45;;;3.70;;
16314;SDS011;8266;52.150;4.768;2023-05-19T05:46:56;7.97;;;3.53;;
16314;SDS011;8266;52.150;4.768;2023-05-19T05:49:23;7.45;;;4.28;;
16314;SDS011;8266;52.150;4.768;2023-05-19T05:51:51;8.63;;;3.67;;
16314;SDS011;8266;52.150;4.768;2023-05-19T05:54:19;6.72;;;3.45;;
16314;SDS011;8266;52.150;4.768;2023-05-19T05:56:49;8.15;;;3.50;;
16314;SDS011;8266;52.150;4.768;2023-05-19T05:59:16;7.25;;;4.20;;
16314;SDS011;8266;52.150;4.768;2023-05-19T06:01:43;7.00;;;3.83;;
16314;SDS011;8266;52.150;4.768;2023-05-19T06:04:11;6.88;;;4.68;;
16314;SDS011;8266;52.150;4.768;2023-05-19T06:06:38;7.47;;;4.10;;
16314;SDS011;8266;52.150;4.768;2023-05-19T06:09:05;6.68;;;3.90;;
16314;SDS011;8266;52.150;4.768;2023-05-19T06:11:32;8.05;;;3.75;;
16314;SDS011;8266;52.150;4.768;2023-05-19T06:13:59;7.32;;;4.20;;
16314;SDS011;8266;52.150;4.768;2023-05-19T06:16:26;5.18;;;3.70;;
16314;SDS011;8266;52.150;4.768;2023-05-19T06:18:53;6.10;;;4.05;;
16314;SDS011;8266;52.150;4.768;2023-05-19T06:21:21;6.13;;;3.92;;
16314;SDS011;8266;52.150;4.768;2023-05-19T06:23:48;6.97;;;4.05;;
16314;SDS011;8266;52.150;4.768;2023-05-19T06:26:15;5.90;;;3.88;;
16314;SDS011;8266;52.150;4.768;2023-05-19T06:28:42;5.70;;;3.70;;
16314;SDS011;8266;52.150;4.768;2023-05-19T06:31:09;7.60;;;3.60;;
16314;SDS011;8266;52.150;4.768;2023-05-19T06:33:36;6.38;;;3.55;;
16314;SDS011;8266;52.150;4.768;2023-05-19T06:36:03;4.82;;;3.05;;
16314;SDS011;8266;52.150;4.768;2023-05-19T06:38:33;6.50;;;3.40;;
16314;SDS011;8266;52.150;4.768;2023-05-19T06:41:00;6.15;;;3.47;;
16314;SDS011;8266;52.150;4.768;2023-05-19T06:43:27;5.25;;;2.92;;
16314;SDS011;8266;52.150;4.768;2023-05-19T06:45:54;6.80;;;3.50;;
16314;SDS011;8266;52.150;4.768;2023-05-19T06:48:21;5.32;;;3.33;;
16314;SDS011;8266;52.150;4.768;2023-05-19T06:50:48;5.80;;;3.60;;
16314;SDS011;8266;52.150;4.768;2023-05-19T06:53:15;6.35;;;3.50;;
16314;SDS011;8266;52.150;4.768;2023-05-19T06:55:45;6.10;;;2.90;;
16314;SDS011;8266;52.150;4.768;2023-05-19T06:58:14;6.30;;;3.08;;
16314;SDS011;8266;52.150;4.768;2023-05-19T07:00:41;6.10;;;3.38;;
16314;SDS011;8266;52.150;4.768;2023-05-19T07:03:08;5.93;;;3.13;;
16314;SDS011;8266;52.150;4.768;2023-05-19T07:05:35;5.10;;;3.22;;
16314;SDS011;8266;52.150;4.768;2023-05-19T07:08:02;6.43;;;2.90;;
16314;SDS011;8266;52.150;4.768;2023-05-19T07:10:30;6.70;;;2.78;;
16314;SDS011;8266;52.150;4.768;2023-05-19T07:12:59;6.22;;;3.38;;
16314;SDS011;8266;52.150;4.768;2023-05-19T07:15:25;7.05;;;3.17;;
16314;SDS011;8266;52.150;4.768;2023-05-19T07:17:52;4.82;;;3.25;;
16314;SDS011;8266;52.150;4.768;2023-05-19T07:20:19;3.30;;;3.00;;
16314;SDS011;8266;52.150;4.768;2023-05-19T07:22:46;5.63;;;3.33;;
16314;SDS011;8266;52.150;4.768;2023-05-19T07:25:13;5.50;;;3.13;;
16314;SDS011;8266;52.150;4.768;2023-05-19T07:27:40;4.00;;;2.90;;
16314;SDS011;8266;52.150;4.768;2023-05-19T07:30:09;5.70;;;3.60;;
16314;SDS011;8266;52.150;4.768;2023-05-19T07:32:37;5.38;;;2.78;;
16314;SDS011;8266;52.150;4.768;2023-05-19T07:35:04;4.35;;;2.88;;
16314;SDS011;8266;52.150;4.768;2023-05-19T07:37:31;5.72;;;3.20;;
16314;SDS011;8266;52.150;4.768;2023-05-19T07:39:58;5.47;;;2.67;;
16314;SDS011;8266;52.150;4.768;2023-05-19T07:42:25;8.52;;;3.10;;
16314;SDS011;8266;52.150;4.768;2023-05-19T07:44:52;5.85;;;3.03;;
16314;SDS011;8266;52.150;4.768;2023-05-19T07:47:21;5.05;;;3.00;;
16314;SDS011;8266;52.150;4.768;2023-05-19T07:49:48;5.47;;;2.78;;
16314;SDS011;8266;52.150;4.768;2023-05-19T07:52:15;4.72;;;2.40;;
16314;SDS011;8266;52.150;4.768;2023-05-19T07:54:42;5.10;;;2.63;;
16314;SDS011;8266;52.150;4.768;2023-05-19T07:57:10;3.55;;;2.40;;
16314;SDS011;8266;52.150;4.768;2023-05-19T07:59:38;4.28;;;2.55;;
16314;SDS011;8266;52.150;4.768;2023-05-19T08:02:05;7.32;;;2.28;;
16314;SDS011;8266;52.150;4.768;2023-05-19T08:04:34;4.82;;;2.53;;
16314;SDS011;8266;52.150;4.768;2023-05-19T08:07:01;6.60;;;2.85;;
16314;SDS011;8266;52.150;4.768;2023-05-19T08:09:28;5.20;;;2.75;;
16314;SDS011;8266;52.150;4.768;2023-05-19T08:11:55;4.35;;;2.45;;
16314;SDS011;8266;52.150;4.768;2023-05-19T08:14:22;6.50;;;2.88;;
16314;SDS011;8266;52.150;4.768;2023-05-19T08:16:50;5.10;;;2.83;;
16314;SDS011;8266;52.150;4.768;2023-05-19T08:19:17;2.75;;;1.90;;
16314;SDS011;8266;52.150;4.768;2023-05-19T08:21:45;3.88;;;1.90;;
16314;SDS011;8266;52.150;4.768;2023-05-19T08:24:12;5.10;;;2.05;;
16314;SDS011;8266;52.150;4.768;2023-05-19T08:26:39;4.28;;;2.20;;
16314;SDS011;8266;52.150;4.768;2023-05-19T08:29:06;4.07;;;2.28;;
16314;SDS011;8266;52.150;4.768;2023-05-19T08:31:33;4.78;;;2.20;;
16314;SDS011;8266;52.150;4.768;2023-05-19T08:34:00;4.85;;;2.40;;
16314;SDS011;8266;52.150;4.768;2023-05-19T08:36:27;3.83;;;1.98;;
16314;SDS011;8266;52.150;4.768;2023-05-19T08:38:56;2.95;;;1.80;;
16314;SDS011;8266;52.150;4.768;2023-05-19T08:41:23;4.68;;;2.00;;
16314;SDS011;8266;52.150;4.768;2023-05-19T08:43:50;4.97;;;1.90;;
16314;SDS011;8266;52.150;4.768;2023-05-19T08:46:17;2.38;;;1.40;;
16314;SDS011;8266;52.150;4.768;2023-05-19T08:48:46;4.38;;;2.00;;
16314;SDS011;8266;52.150;4.768;2023-05-19T08:51:17;4.35;;;1.88;;
16314;SDS011;8266;52.150;4.768;2023-05-19T08:53:49;2.22;;;1.30;;
16314;SDS011;8266;52.150;4.768;2023-05-19T08:56:23;3.55;;;1.65;;
16314;SDS011;8266;52.150;4.768;2023-05-19T08:58:50;4.25;;;1.45;;
16314;SDS011;8266;52.150;4.768;2023-05-19T09:01:18;4.10;;;1.67;;
16314;SDS011;8266;52.150;4.768;2023-05-19T09:03:46;4.50;;;1.80;;
16314;SDS011;8266;52.150;4.768;2023-05-19T09:06:13;4.13;;;1.40;;
16314;SDS011;8266;52.150;4.768;2023-05-19T09:08:41;5.32;;;1.63;;
16314;SDS011;8266;52.150;4.768;2023-05-19T09:11:09;3.45;;;1.42;;
16314;SDS011;8266;52.150;4.768;2023-05-19T09:13:38;3.55;;;1.15;;
16314;SDS011;8266;52.150;4.768;2023-05-19T09:16:05;4.85;;;1.33;;
16314;SDS011;8266;52.150;4.768;2023-05-19T09:18:33;2.72;;;1.10;;
16314;SDS011;8266;52.150;4.768;2023-05-19T09:21:03;3.55;;;1.25;;
16314;SDS011;8266;52.150;4.768;2023-05-19T09:23:31;5.35;;;1.67;;
16314;SDS011;8266;52.150;4.768;2023-05-19T09:26:00;2.83;;;1.20;;
16314;SDS011;8266;52.150;4.768;2023-05-19T09:28:31;4.57;;;1.45;;
16314;SDS011;8266;52.150;4.768;2023-05-19T09:31:01;3.35;;;1.30;;
16314;SDS011;8266;52.150;4.768;2023-05-19T09:33:29;3.72;;;1.55;;
16314;SDS011;8266;52.150;4.768;2023-05-19T09:35:59;2.58;;;1.50;;
16314;SDS011;8266;52.150;4.768;2023-05-19T09:38:27;2.83;;;1.38;;
16314;SDS011;8266;52.150;4.768;2023-05-19T09:40:54;3.13;;;1.60;;
16314;SDS011;8266;52.150;4.768;2023-05-19T09:43:22;4.38;;;1.70;;
16314;SDS011;8266;52.150;4.768;2023-05-19T09:45:53;4.45;;;1.77;;
16314;SDS011;8266;52.150;4.768;2023-05-19T09:48:24;4.55;;;1.70;;
16314;SDS011;8266;52.150;4.768;2023-05-19T09:50:51;2.78;;;1.45;;
16314;SDS011;8266;52.150;4.768;2023-05-19T09:53:19;3.92;;;1.60;;
16314;SDS011;8266;52.150;4.768;2023-05-19T09:55:47;3.67;;;1.30;;
16314;SDS011;8266;52.150;4.768;2023-05-19T09:58:16;3.53;;;1.38;;
16314;SDS011;8266;52.150;4.768;2023-05-19T10:00:45;3.53;;;1.52;;
16314;SDS011;8266;52.150;4.768;2023-05-19T10:03:13;3.55;;;1.35;;
16314;SDS011;8266;52.150;4.768;2023-05-19T10:05:43;3.00;;;1.52;;
16314;SDS011;8266;52.150;4.768;2023-05-19T10:08:11;4.75;;;2.03;;
16314;SDS011;8266;52.150;4.768;2023-05-19T10:10:38;5.25;;;2.08;;
16314;SDS011;8266;52.150;4.768;2023-05-19T10:13:06;4.65;;;1.90;;
16314;SDS011;8266;52.150;4.768;2023-05-19T10:15:33;4.15;;;1.50;;
16314;SDS011;8266;52.150;4.768;2023-05-19T10:18:02;5.50;;;1.77;;
16314;SDS011;8266;52.150;4.768;2023-05-19T10:20:32;5.93;;;1.83;;
16314;SDS011;8266;52.150;4.768;2023-05-19T10:23:02;4.80;;;2.00;;
16314;SDS011;8266;52.150;4.768;2023-05-19T10:25:32;4.50;;;1.50;;
16314;SDS011;8266;52.150;4.768;2023-05-19T10:28:02;3.35;;;1.45;;
16314;SDS011;8266;52.150;4.768;2023-05-19T10:30:35;4.10;;;1.85;;
16314;SDS011;8266;52.150;4.768;2023-05-19T10:33:05;5.35;;;1.95;;
16314;SDS011;8266;52.150;4.768;2023-05-19T10:35:49;4.30;;;1.65;;
16314;SDS011;8266;52.150;4.768;2023-05-19T10:38:36;5.50;;;2.28;;
16314;SDS011;8266;52.150;4.768;2023-05-19T10:41:09;4.28;;;1.65;;
16314;SDS011;8266;52.150;4.768;2023-05-19T10:43:43;3.58;;;1.55;;
16314;SDS011;8266;52.150;4.768;2023-05-19T10:46:16;4.25;;;1.65;;
16314;SDS011;8266;52.150;4.768;2023-05-19T10:48:43;3.88;;;1.60;;
16314;SDS011;8266;52.150;4.768;2023-05-19T10:51:11;4.50;;;2.05;;
16314;SDS011;8266;52.150;4.768;2023-05-19T10:53:42;4.78;;;2.00;;
16314;SDS011;8266;52.150;4.768;2023-05-19T10:56:11;3.03;;;1.70;;
16314;SDS011;8266;52.150;4.768;2023-05-19T10:58:54;4.85;;;1.85;;
16314;SDS011;8266;52.150;4.768;2023-05-19T11:01:21;3.38;;;1.30;;
16314;SDS011;8266;52.150;4.768;2023-05-19T11:03:55;5.43;;;1.70;;
16314;SDS011;8266;52.150;4.768;2023-05-19T11:06:25;3.50;;;1.75;;
16314;SDS011;8266;52.150;4.768;2023-05-19T11:08:58;4.82;;;1.50;;
16314;SDS011;8266;52.150;4.768;2023-05-19T11:11:27;3.50;;;1.75;;
16314;SDS011;8266;52.150;4.768;2023-05-19T11:14:10;4.25;;;1.77;;
16314;SDS011;8266;52.150;4.768;2023-05-19T11:16:38;4.82;;;2.03;;
16314;SDS011;8266;52.150;4.768;2023-05-19T11:19:07;4.68;;;2.17;;
16314;SDS011;8266;52.150;4.768;2023-05-19T11:21:41;4.47;;;1.88;;
16314;SDS011;8266;52.150;4.768;2023-05-19T11:27:16;3.58;;;1.90;;
16314;SDS011;8266;52.150;4.768;2023-05-19T11:29:45;3.83;;;1.92;;
16314;SDS011;8266;52.150;4.768;2023-05-19T11:32:13;9.20;;;1.98;;
16314;SDS011;8266;52.150;4.768;2023-05-19T11:34:40;3.88;;;1.92;;
16314;SDS011;8266;52.150;4.768;2023-05-19T11:37:08;3.40;;;1.83;;
16314;SDS011;8266;52.150;4.768;2023-05-19T11:39:39;4.88;;;2.00;;
16314;SDS011;8266;52.150;4.768;2023-05-19T11:42:07;4.70;;;2.28;;
16314;SDS011;8266;52.150;4.768;2023-05-19T11:44:35;4.93;;;2.60;;
16314;SDS011;8266;52.150;4.768;2023-05-19T11:47:02;4.05;;;2.03;;
16314;SDS011;8266;52.150;4.768;2023-05-19T11:49:30;3.60;;;1.92;;
16314;SDS011;8266;52.150;4.768;2023-05-19T11:51:58;4.78;;;1.80;;
16314;SDS011;8266;52.150;4.768;2023-05-19T11:54:28;3.67;;;1.80;;
16314;SDS011;8266;52.150;4.768;2023-05-19T11:56:58;3.65;;;1.77;;
16314;SDS011;8266;52.150;4.768;2023-05-19T11:59:29;4.55;;;2.13;;
16314;SDS011;8266;52.150;4.768;2023-05-19T12:01:59;3.50;;;1.80;;
16314;SDS011;8266;52.150;4.768;2023-05-19T12:04:28;4.53;;;2.10;;
16314;SDS011;8266;52.150;4.768;2023-05-19T12:06:56;6.50;;;2.35;;
16314;SDS011;8266;52.150;4.768;2023-05-19T12:09:23;4.90;;;2.30;;
16314;SDS011;8266;52.150;4.768;2023-05-19T12:11:50;5.32;;;2.30;;
16314;SDS011;8266;52.150;4.768;2023-05-19T12:14:19;5.53;;;2.10;;
16314;SDS011;8266;52.150;4.768;2023-05-19T12:16:46;5.95;;;2.40;;
16314;SDS011;8266;52.150;4.768;2023-05-19T12:19:13;5.72;;;2.22;;
16314;SDS011;8266;52.150;4.768;2023-05-19T12:21:40;4.80;;;1.95;;
16314;SDS011;8266;52.150;4.768;2023-05-19T12:24:07;5.13;;;1.90;;
16314;SDS011;8266;52.150;4.768;2023-05-19T12:26:34;3.53;;;1.42;;
16314;SDS011;8266;52.150;4.768;2023-05-19T12:29:03;3.00;;;1.52;;
16314;SDS011;8266;52.150;4.768;2023-05-19T12:31:33;3.65;;;1.85;;
16314;SDS011;8266;52.150;4.768;2023-05-19T12:34:00;4.38;;;2.00;;
16314;SDS011;8266;52.150;4.768;2023-05-19T12:36:27;4.43;;;1.52;;
16314;SDS011;8266;52.150;4.768;2023-05-19T12:38:56;4.45;;;1.90;;
16314;SDS011;8266;52.150;4.768;2023-05-19T12:41:23;4.18;;;2.10;;
16314;SDS011;8266;52.150;4.768;2023-05-19T12:43:51;8.50;;;2.53;;
16314;SDS011;8266;52.150;4.768;2023-05-19T12:46:19;3.70;;;1.80;;
16314;SDS011;8266;52.150;4.768;2023-05-19T12:48:48;3.75;;;1.73;;
16314;SDS011;8266;52.150;4.768;2023-05-19T12:51:15;4.22;;;1.80;;
16314;SDS011;8266;52.150;4.768;2023-05-19T12:53:43;6.68;;;1.75;;
16314;SDS011;8266;52.150;4.768;2023-05-19T12:56:10;7.22;;;2.03;;
16314;SDS011;8266;52.150;4.768;2023-05-19T12:58:38;5.13;;;2.10;;
16314;SDS011;8266;52.150;4.768;2023-05-19T13:01:06;3.67;;;1.40;;
16314;SDS011;8266;52.150;4.768;2023-05-19T13:03:40;4.38;;;1.70;;
16314;SDS011;8266;52.150;4.768;2023-05-19T13:06:09;3.42;;;2.05;;
16314;SDS011;8266;52.150;4.768;2023-05-19T13:08:37;5.00;;;1.77;;
16314;SDS011;8266;52.150;4.768;2023-05-19T13:11:04;6.00;;;1.80;;
16314;SDS011;8266;52.150;4.768;2023-05-19T13:13:32;4.25;;;1.70;;
16314;SDS011;8266;52.150;4.768;2023-05-19T13:15:58;6.00;;;1.85;;
16314;SDS011;8266;52.150;4.768;2023-05-19T13:18:25;2.13;;;1.70;;
16314;SDS011;8266;52.150;4.768;2023-05-19T13:20:56;3.75;;;1.75;;
16314;SDS011;8266;52.150;4.768;2023-05-19T13:23:24;3.30;;;1.60;;
16314;SDS011;8266;52.150;4.768;2023-05-19T13:25:52;3.75;;;1.70;;
16314;SDS011;8266;52.150;4.768;2023-05-19T13:28:19;2.92;;;1.95;;
16314;SDS011;8266;52.150;4.768;2023-05-19T13:30:46;4.00;;;1.70;;
16314;SDS011;8266;52.150;4.768;2023-05-19T13:33:13;4.82;;;1.80;;
16314;SDS011;8266;52.150;4.768;2023-05-19T13:35:40;4.78;;;2.25;;
16314;SDS011;8266;52.150;4.768;2023-05-19T13:38:07;5.97;;;2.13;;
16314;SDS011;8266;52.150;4.768;2023-05-19T13:40:36;3.55;;;2.17;;
16314;SDS011;8266;52.150;4.768;2023-05-19T13:43:04;2.85;;;1.50;;
16314;SDS011;8266;52.150;4.768;2023-05-19T13:45:31;2.88;;;1.40;;
16314;SDS011;8266;52.150;4.768;2023-05-19T13:47:58;4.22;;;1.70;;
16314;SDS011;8266;52.150;4.768;2023-05-19T13:50:25;5.85;;;1.70;;
16314;SDS011;8266;52.150;4.768;2023-05-19T13:52:52;3.70;;;1.65;;
16314;SDS011;8266;52.150;4.768;2023-05-19T13:55:19;3.65;;;1.58;;
16314;SDS011;8266;52.150;4.768;2023-05-19T13:57:48;4.20;;;1.70;;
16314;SDS011;8266;52.150;4.768;2023-05-19T14:00:15;5.90;;;2.30;;
16314;SDS011;8266;52.150;4.768;2023-05-19T14:02:44;5.28;;;2.03;;
16314;SDS011;8266;52.150;4.768;2023-05-19T14:05:11;4.88;;;2.10;;
16314;SDS011;8266;52.150;4.768;2023-05-19T14:07:38;6.43;;;2.00;;
16314;SDS011;8266;52.150;4.768;2023-05-19T14:10:05;5.10;;;1.80;;
16314;SDS011;8266;52.150;4.768;2023-05-19T14:12:33;5.88;;;1.60;;
16314;SDS011;8266;52.150;4.768;2023-05-19T14:15:02;4.82;;;1.60;;
16314;SDS011;8266;52.150;4.768;2023-05-19T14:17:30;3.38;;;1.80;;
16314;SDS011;8266;52.150;4.768;2023-05-19T14:19:58;4.22;;;1.80;;
16314;SDS011;8266;52.150;4.768;2023-05-19T14:22:25;3.42;;;1.70;;
16314;SDS011;8266;52.150;4.768;2023-05-19T14:24:52;5.47;;;1.35;;
16314;SDS011;8266;52.150;4.768;2023-05-19T14:27:19;4.85;;;1.52;;
16314;SDS011;8266;52.150;4.768;2023-05-19T14:29:46;2.63;;;1.33;;
16314;SDS011;8266;52.150;4.768;2023-05-19T14:32:15;2.95;;;1.67;;
16314;SDS011;8266;52.150;4.768;2023-05-19T14:34:42;2.60;;;1.38;;
16314;SDS011;8266;52.150;4.768;2023-05-19T14:37:09;4.47;;;1.77;;
16314;SDS011;8266;52.150;4.768;2023-05-19T14:39:36;4.28;;;1.60;;
16314;SDS011;8266;52.150;4.768;2023-05-19T14:42:03;2.88;;;1.30;;
16314;SDS011;8266;52.150;4.768;2023-05-19T14:44:30;3.15;;;1.70;;
16314;SDS011;8266;52.150;4.768;2023-05-19T14:46:58;4.97;;;1.55;;
16314;SDS011;8266;52.150;4.768;2023-05-19T14:49:26;5.40;;;1.90;;
16314;SDS011;8266;52.150;4.768;2023-05-19T14:51:53;3.72;;;1.45;;
16314;SDS011;8266;52.150;4.768;2023-05-19T14:54:20;5.07;;;1.90;;
16314;SDS011;8266;52.150;4.768;2023-05-19T14:56:47;4.35;;;1.70;;
16314;SDS011;8266;52.150;4.768;2023-05-19T14:59:14;6.88;;;2.30;;
16314;SDS011;8266;52.150;4.768;2023-05-19T15:01:41;4.18;;;1.80;;
16314;SDS011;8266;52.150;4.768;2023-05-19T15:04:08;4.70;;;1.55;;
16314;SDS011;8266;52.150;4.768;2023-05-19T15:06:36;4.65;;;1.88;;
16314;SDS011;8266;52.150;4.768;2023-05-19T15:09:03;3.15;;;1.85;;
16314;SDS011;8266;52.150;4.768;2023-05-19T15:11:30;6.30;;;1.70;;
16314;SDS011;8266;52.150;4.768;2023-05-19T15:13:57;3.17;;;1.58;;